Estación Meteorológica Peña el Pijo (Robertgarden) [ 02/03/23 04:51:54 CET ]

Fecha Hora Presion(HPa) Temp (°C) Humedad % Rocio (°C) Viento ( m/s) Direccion Lluvia 1Hora(mm) Lluvia 24H(mm) LLuvia Total(mm)
2010-Mar-14 01:01:14 1014.100 -1.2 82 -3.9         100.49
2010-Mar-14 02:05:17 1014.100 -1.6 82 -4.3         100.49
2010-Mar-14 03:01:16 1013.800 -2.0 84 -4.4         100.49
2010-Mar-14 04:01:17 1013.300 -2.6 84 -5.0         100.49
2010-Mar-14 05:01:12 1013.300 -3.2 85 -5.4         100.49
2010-Mar-14 06:01:11 1013.000 -3.5 86 -5.5         100.49
2010-Mar-14 07:01:13 1012.900 -3.6 86 -5.6         100.49
2010-Mar-14 08:01:13 1013.000 -3.5 86 -5.5         100.49
2010-Mar-14 09:01:14 1013.500 0.7 85 -1.6         100.49
2010-Mar-14 10:01:16 1013.800 3.9 70 -1.1         100.49
2010-Mar-14 11:01:14 1014.100 4.8 63 -1.7         100.49
2010-Mar-14 12:01:12 1013.800 6.1 55 -2.3         100.49
2010-Mar-14 13:01:14 1013.900 5.9 53 -3.0         100.49
2010-Mar-14 14:01:12 1013.500 9.8 44 -1.9         100.49
2010-Mar-14 15:01:12 1013.100 8.3 44 -3.3         100.49
2010-Mar-14 16:01:14 1013.300 9.9 44 -1.9         100.49
2010-Mar-14 17:01:21 1013.600 5.8 58 -1.9         100.49
2010-Mar-14 18:01:13 1013.300 7.6 53 -1.4         100.49
2010-Mar-14 19:01:14 1013.900 6.2 54 -2.5         100.49
2010-Mar-14 20:01:17 1014.100 2.6 65 -3.3         100.49
2010-Mar-14 21:01:17 1014.600 1.1 69 -4.0         100.49
2010-Mar-14 22:01:14 1015.200 -0.8 75 -4.7         100.49
2010-Mar-14 23:01:16 1015.700 -1.3 79 -4.5         100.49

Temperatura Máxima:    Temperatura Mínima:-3°
Presión Máxima:1015.700 Hpa    Presión Mínima:1012.900 Hpa


Volver